createdAt,value
2018-12-15T00:00:39.973Z,1014.58
2018-12-15T00:01:40.025Z,1014.57
2018-12-15T00:02:40.076Z,1014.53
2018-12-15T00:03:40.131Z,1014.59
2018-12-15T00:04:40.183Z,1014.58
2018-12-15T00:05:40.239Z,1014.57
2018-12-15T00:06:40.289Z,1014.59
2018-12-15T00:07:40.341Z,1014.59
2018-12-15T00:08:40.394Z,1014.54
2018-12-15T00:09:40.448Z,1014.55
2018-12-15T00:10:40.503Z,1014.57
2018-12-15T00:11:40.553Z,1014.59
2018-12-15T00:12:40.607Z,1014.57
2018-12-15T00:13:40.660Z,1014.57
2018-12-15T00:14:40.714Z,1014.55
2018-12-15T00:15:40.768Z,1014.57
2018-12-15T00:16:40.820Z,1014.60
2018-12-15T00:17:40.874Z,1014.61
2018-12-15T00:18:40.927Z,1014.66
2018-12-15T00:19:40.981Z,1014.62
2018-12-15T00:20:41.032Z,1014.62
2018-12-15T00:21:41.087Z,1014.59
2018-12-15T00:22:41.138Z,1014.64
2018-12-15T00:23:41.191Z,1014.61
2018-12-15T00:24:41.246Z,1014.66
2018-12-15T00:25:41.299Z,1014.65
2018-12-15T00:26:41.353Z,1014.62
2018-12-15T00:27:41.406Z,1014.64
2018-12-15T00:28:41.457Z,1014.66
2018-12-15T00:29:41.512Z,1014.67
2018-12-15T00:30:41.565Z,1014.69
2018-12-15T00:31:41.618Z,1014.67
2018-12-15T00:32:41.671Z,1014.70
2018-12-15T00:33:41.724Z,1014.71
2018-12-15T00:34:41.777Z,1014.72
2018-12-15T00:35:41.830Z,1014.74
2018-12-15T00:36:41.884Z,1014.73
2018-12-15T00:37:41.937Z,1014.71
2018-12-15T00:38:41.989Z,1014.67
2018-12-15T00:39:42.043Z,1014.67
2018-12-15T00:40:42.096Z,1014.69
2018-12-15T00:41:42.148Z,1014.71
2018-12-15T00:42:42.201Z,1014.73
2018-12-15T00:43:42.255Z,1014.75
2018-12-15T00:44:42.309Z,1014.77
2018-12-15T00:45:42.361Z,1014.72
2018-12-15T00:46:42.415Z,1014.72
2018-12-15T00:47:42.528Z,1014.74
2018-12-15T00:48:42.520Z,1014.77
2018-12-15T00:49:42.575Z,1014.76
2018-12-15T00:50:42.626Z,1014.80
2018-12-15T00:51:42.681Z,1014.76
2018-12-15T00:52:42.734Z,1014.78
2018-12-15T00:53:42.788Z,1014.82
2018-12-15T00:54:42.839Z,1014.84
2018-12-15T00:55:42.892Z,1014.82
2018-12-15T00:56:42.946Z,1014.82
2018-12-15T00:57:42.999Z,1014.82
2018-12-15T00:58:43.053Z,1014.86
2018-12-15T00:59:43.107Z,1014.84
2018-12-15T01:00:43.159Z,1014.82
2018-12-15T01:01:43.214Z,1014.84
2018-12-15T01:02:43.265Z,1014.86
2018-12-15T01:03:43.320Z,1014.86
2018-12-15T01:04:43.374Z,1014.87
2018-12-15T01:05:43.428Z,1014.88
2018-12-15T01:06:43.479Z,1014.89
2018-12-15T01:07:43.532Z,1014.89
2018-12-15T01:08:43.587Z,1014.93
2018-12-15T01:09:43.645Z,1014.92
2018-12-15T01:10:43.692Z,1014.93
2018-12-15T01:11:43.754Z,1014.92
2018-12-15T01:12:43.799Z,1014.92
2018-12-15T01:13:43.852Z,1014.99
2018-12-15T01:14:43.906Z,1014.96
2018-12-15T01:15:43.961Z,1014.99
2018-12-15T01:16:44.013Z,1015.00
2018-12-15T01:17:44.066Z,1015.02
2018-12-15T01:18:44.123Z,1014.99
2018-12-15T01:19:44.171Z,1014.97
2018-12-15T01:20:44.227Z,1014.99
2018-12-15T01:21:44.281Z,1015.01
2018-12-15T01:22:44.332Z,1015.02
2018-12-15T01:23:44.387Z,1015.04
2018-12-15T01:24:44.444Z,1015.06
2018-12-15T01:25:44.495Z,1015.13
2018-12-15T01:26:44.545Z,1015.10
2018-12-15T01:27:44.598Z,1015.09
2018-12-15T01:28:44.655Z,1015.14
2018-12-15T01:29:44.706Z,1015.14
2018-12-15T01:30:44.757Z,1015.14
2018-12-15T01:31:44.812Z,1015.16
2018-12-15T01:32:44.864Z,1015.20
2018-12-15T01:33:44.918Z,1015.22
2018-12-15T01:34:44.970Z,1015.24
2018-12-15T01:35:45.025Z,1015.26
2018-12-15T01:36:45.077Z,1015.27
2018-12-15T01:37:45.130Z,1015.29
2018-12-15T01:38:45.183Z,1015.27
2018-12-15T01:39:45.236Z,1015.27
2018-12-15T01:40:45.290Z,1015.27
2018-12-15T01:41:45.344Z,1015.29
2018-12-15T01:42:45.395Z,1015.33
2018-12-15T01:43:45.447Z,1015.31
2018-12-15T01:44:45.506Z,1015.34
2018-12-15T01:45:45.556Z,1015.32
2018-12-15T01:46:45.607Z,1015.33
2018-12-15T01:47:45.660Z,1015.35
2018-12-15T01:48:45.731Z,1015.36
2018-12-15T01:49:45.766Z,1015.37
2018-12-15T01:50:45.819Z,1015.37
2018-12-15T01:51:45.872Z,1015.42
2018-12-15T01:52:45.925Z,1015.42
2018-12-15T01:53:45.977Z,1015.43
2018-12-15T01:54:46.030Z,1015.39
2018-12-15T01:55:46.082Z,1015.40
2018-12-15T01:56:46.140Z,1015.42
2018-12-15T01:57:46.196Z,1015.46
2018-12-15T01:58:46.250Z,1015.45
2018-12-15T01:59:46.294Z,1015.45
2018-12-15T02:00:46.347Z,1015.46
2018-12-15T02:01:46.404Z,1015.43
2018-12-15T02:02:46.455Z,1015.41
2018-12-15T02:03:46.508Z,1015.41
2018-12-15T02:04:46.560Z,1015.39
2018-12-15T02:05:46.612Z,1015.38
2018-12-15T02:06:46.667Z,1015.40
2018-12-15T02:07:46.720Z,1015.43
2018-12-15T02:08:46.769Z,1015.39
2018-12-15T02:09:46.823Z,1015.40
2018-12-15T02:10:46.874Z,1015.39
2018-12-15T02:11:46.927Z,1015.43
2018-12-15T02:12:46.984Z,1015.43
2018-12-15T02:13:47.034Z,1015.44
2018-12-15T02:14:47.087Z,1015.44
2018-12-15T02:15:47.142Z,1015.44
2018-12-15T02:16:47.192Z,1015.44
2018-12-15T02:17:47.244Z,1015.44
2018-12-15T02:18:47.296Z,1015.44
2018-12-15T02:19:47.351Z,1015.43
2018-12-15T02:20:47.401Z,1015.47
2018-12-15T02:21:47.454Z,1015.40
2018-12-15T02:22:47.507Z,1015.45
2018-12-15T02:23:47.561Z,1015.48
2018-12-15T02:24:47.613Z,1015.49
2018-12-15T02:25:47.666Z,1015.45
2018-12-15T02:26:47.721Z,1015.47
2018-12-15T02:27:47.771Z,1015.45
2018-12-15T02:28:47.824Z,1015.42
2018-12-15T02:29:47.875Z,1015.44
2018-12-15T02:30:47.929Z,1015.42
2018-12-15T02:31:47.981Z,1015.45
2018-12-15T02:32:48.033Z,1015.40
2018-12-15T02:33:48.087Z,1015.39
2018-12-15T02:34:48.139Z,1015.39
2018-12-15T02:35:48.192Z,1015.41
2018-12-15T02:36:48.245Z,1015.39
2018-12-15T02:37:48.297Z,1015.36
2018-12-15T02:38:48.353Z,1015.36
2018-12-15T02:39:48.402Z,1015.35
2018-12-15T02:40:48.456Z,1015.34
2018-12-15T02:41:48.508Z,1015.35
2018-12-15T02:42:48.560Z,1015.33
2018-12-15T02:43:48.612Z,1015.35
2018-12-15T02:44:48.666Z,1015.38
2018-12-15T02:45:48.719Z,1015.33
2018-12-15T02:46:48.770Z,1015.36
2018-12-15T02:47:48.823Z,1015.39
2018-12-15T02:48:48.875Z,1015.34
2018-12-15T02:49:48.928Z,1015.30
2018-12-15T02:50:48.981Z,1015.33
2018-12-15T02:51:49.033Z,1015.30
2018-12-15T02:52:49.087Z,1015.29
2018-12-15T02:53:49.144Z,1015.29
2018-12-15T02:54:49.193Z,1015.30
2018-12-15T02:55:49.245Z,1015.25
2018-12-15T02:56:49.301Z,1015.20
2018-12-15T02:57:49.352Z,1015.20
2018-12-15T02:58:49.402Z,1015.18
2018-12-15T02:59:49.459Z,1015.21
2018-12-15T03:00:49.507Z,1015.21
2018-12-15T03:01:49.562Z,1015.20
2018-12-15T03:02:49.677Z,1015.18
2018-12-15T03:03:49.667Z,1015.18
2018-12-15T03:04:49.717Z,1015.15
2018-12-15T03:05:49.771Z,1015.14
2018-12-15T03:06:49.825Z,1015.11
2018-12-15T03:07:49.877Z,1015.15
2018-12-15T03:08:49.930Z,1015.15
2018-12-15T03:09:49.984Z,1015.18
2018-12-15T03:10:50.040Z,1015.17
2018-12-15T03:11:50.090Z,1015.13
2018-12-15T03:12:50.179Z,1015.12
2018-12-15T03:13:50.193Z,1015.09
2018-12-15T03:14:50.250Z,1015.07
2018-12-15T03:15:50.298Z,1015.02
2018-12-15T03:16:50.354Z,1015.00
2018-12-15T03:17:50.406Z,1014.98
2018-12-15T03:18:50.456Z,1014.99
2018-12-15T03:19:50.519Z,1014.98
2018-12-15T03:20:50.570Z,1015.00
2018-12-15T03:21:50.615Z,1015.00
2018-12-15T03:22:50.667Z,1015.00
2018-12-15T03:23:50.721Z,1015.02
2018-12-15T03:24:50.772Z,1014.99
2018-12-15T03:25:50.826Z,1014.98
2018-12-15T03:26:50.879Z,1015.01
2018-12-15T03:27:50.931Z,1015.01
2018-12-15T03:28:50.985Z,1015.00
2018-12-15T03:29:51.037Z,1014.98
2018-12-15T03:30:51.091Z,1014.98
2018-12-15T03:31:51.144Z,1014.97
2018-12-15T03:32:51.204Z,1015.00
2018-12-15T03:33:51.249Z,1014.98
2018-12-15T03:34:51.302Z,1014.98
2018-12-15T03:35:51.354Z,1014.99
2018-12-15T03:36:51.409Z,1014.97
2018-12-15T03:37:51.463Z,1014.97
2018-12-15T03:38:51.515Z,1014.98
2018-12-15T03:39:51.569Z,1014.96
2018-12-15T03:40:51.620Z,1014.96
2018-12-15T03:41:51.673Z,1014.97
2018-12-15T03:42:51.725Z,1014.97
2018-12-15T03:43:51.781Z,1014.96
2018-12-15T03:44:51.837Z,1015.00
2018-12-15T03:45:51.885Z,1014.97
2018-12-15T03:46:51.978Z,1014.99
2018-12-15T03:47:56.157Z,1014.96
2018-12-15T03:48:52.043Z,1014.98
2018-12-15T03:49:52.097Z,1014.98
2018-12-15T03:50:52.150Z,1015.00
2018-12-15T03:51:52.202Z,1014.97
2018-12-15T03:52:52.310Z,1014.93
2018-12-15T03:53:52.307Z,1014.96
2018-12-15T03:54:52.373Z,1014.97
2018-12-15T03:55:52.413Z,1014.95
2018-12-15T03:56:52.468Z,1014.91
2018-12-15T03:57:52.909Z,1014.95
2018-12-15T03:58:52.577Z,1014.88
2018-12-15T03:59:52.624Z,1014.89
2018-12-15T04:00:52.677Z,1014.85
2018-12-15T04:01:52.729Z,1014.84
2018-12-15T04:02:52.782Z,1014.85
2018-12-15T04:03:52.835Z,1014.86
2018-12-15T04:04:52.888Z,1014.85
2018-12-15T04:05:52.941Z,1014.84
2018-12-15T04:06:52.994Z,1014.80
2018-12-15T04:07:53.045Z,1014.78
2018-12-15T04:08:53.101Z,1014.80
2018-12-15T04:09:53.152Z,1014.83
2018-12-15T04:10:53.205Z,1014.79
2018-12-15T04:11:53.258Z,1014.82
2018-12-15T04:12:53.310Z,1014.86
2018-12-15T04:13:53.365Z,1014.85
2018-12-15T04:14:53.418Z,1014.85
2018-12-15T04:15:53.470Z,1014.86
2018-12-15T04:16:53.540Z,1014.85
2018-12-15T04:17:53.575Z,1014.84
2018-12-15T04:18:53.631Z,1014.83
2018-12-15T04:19:53.680Z,1014.86
2018-12-15T04:20:53.733Z,1014.87
2018-12-15T04:21:53.786Z,1014.87
2018-12-15T04:22:53.840Z,1014.87
2018-12-15T04:23:53.902Z,1014.90
2018-12-15T04:24:53.946Z,1014.92
2018-12-15T04:25:54.007Z,1014.92
2018-12-15T04:26:54.061Z,1014.94
2018-12-15T04:27:54.112Z,1014.97
2018-12-15T04:28:54.159Z,1014.98
2018-12-15T04:29:54.212Z,1014.95
2018-12-15T04:30:54.263Z,1014.92
2018-12-15T04:31:54.327Z,1014.92
2018-12-15T04:32:54.368Z,1014.86
2018-12-15T04:33:54.421Z,1014.86
2018-12-15T04:34:54.475Z,1014.85
2018-12-15T04:35:54.526Z,1014.88
2018-12-15T04:36:54.580Z,1014.88
2018-12-15T04:37:54.633Z,1014.92
2018-12-15T04:38:54.686Z,1014.91
2018-12-15T04:39:54.738Z,1014.93
2018-12-15T04:40:54.790Z,1014.88
2018-12-15T04:41:54.843Z,1014.90
2018-12-15T04:42:54.896Z,1014.91
2018-12-15T04:43:54.955Z,1014.86
2018-12-15T04:44:55.002Z,1014.89
2018-12-15T04:45:55.055Z,1014.88
2018-12-15T04:46:55.106Z,1014.89
2018-12-15T04:47:55.160Z,1014.89
2018-12-15T04:48:55.213Z,1014.95
2018-12-15T04:49:55.268Z,1014.92
2018-12-15T04:50:55.317Z,1014.94
2018-12-15T04:51:55.371Z,1014.88
2018-12-15T04:52:55.423Z,1014.92
2018-12-15T04:53:55.475Z,1014.90
2018-12-15T04:54:55.528Z,1014.93
2018-12-15T04:55:55.585Z,1014.92
2018-12-15T04:56:55.635Z,1014.93
2018-12-15T04:57:55.689Z,1014.93
2018-12-15T04:58:55.739Z,1014.93
2018-12-15T04:59:55.791Z,1014.88
2018-12-15T05:00:55.893Z,1014.87
2018-12-15T05:01:55.898Z,1014.86
2018-12-15T05:02:55.954Z,1014.88
2018-12-15T05:03:56.003Z,1014.88
2018-12-15T05:04:56.058Z,1014.92
2018-12-15T05:05:56.111Z,1014.90
2018-12-15T05:06:56.161Z,1014.87
2018-12-15T05:07:56.219Z,1014.90
2018-12-15T05:08:56.267Z,1014.91
2018-12-15T05:09:56.321Z,1014.96
2018-12-15T05:10:56.373Z,1014.98
2018-12-15T05:11:56.426Z,1014.93
2018-12-15T05:12:56.479Z,1014.96
2018-12-15T05:13:56.531Z,1014.99
2018-12-15T05:14:56.583Z,1014.98
2018-12-15T05:15:56.638Z,1014.99
2018-12-15T05:16:56.693Z,1014.96
2018-12-15T05:17:56.745Z,1014.93
2018-12-15T05:18:56.798Z,1014.94
2018-12-15T05:19:56.849Z,1014.92
2018-12-15T05:20:56.904Z,1014.91
2018-12-15T05:21:56.955Z,1014.93
2018-12-15T05:22:57.008Z,1014.90
2018-12-15T05:23:57.061Z,1014.91
2018-12-15T05:24:57.115Z,1014.92
2018-12-15T05:25:57.167Z,1014.92
2018-12-15T05:26:57.220Z,1014.92
2018-12-15T05:27:57.273Z,1014.92
2018-12-15T05:28:57.328Z,1014.90
2018-12-15T05:29:57.382Z,1014.90
2018-12-15T05:30:57.432Z,1014.94
2018-12-15T05:31:57.484Z,1014.88
2018-12-15T05:32:57.539Z,1014.89
2018-12-15T05:33:57.592Z,1014.93
2018-12-15T05:34:57.644Z,1014.92
2018-12-15T05:35:57.738Z,1014.88
2018-12-15T05:36:57.753Z,1014.91
2018-12-15T05:37:57.804Z,1014.92
2018-12-15T05:38:57.857Z,1014.92
2018-12-15T05:39:57.909Z,1014.92
2018-12-15T05:40:57.964Z,1014.92
2018-12-15T05:41:58.016Z,1014.91
2018-12-15T05:42:58.070Z,1014.95
2018-12-15T05:43:58.123Z,1014.94
2018-12-15T05:44:58.177Z,1014.94
2018-12-15T05:45:58.230Z,1014.96
2018-12-15T05:46:58.283Z,1014.89
2018-12-15T05:47:58.337Z,1014.87
2018-12-15T05:48:58.391Z,1014.87
2018-12-15T05:49:58.442Z,1014.87
2018-12-15T05:50:58.496Z,1014.88
2018-12-15T05:51:58.549Z,1014.91
2018-12-15T05:52:58.605Z,1014.94
2018-12-15T05:53:58.657Z,1014.87
2018-12-15T05:54:58.709Z,1014.88
2018-12-15T05:55:58.763Z,1014.91
2018-12-15T05:56:58.817Z,1014.90
2018-12-15T05:57:58.870Z,1014.94
2018-12-15T05:58:58.923Z,1014.93
2018-12-15T05:59:58.976Z,1014.93
2018-12-15T06:00:59.032Z,1014.89
2018-12-15T06:01:59.082Z,1014.96
2018-12-15T06:02:59.135Z,1014.92
2018-12-15T06:03:59.189Z,1014.91
2018-12-15T06:04:59.244Z,1014.91
2018-12-15T06:05:59.295Z,1014.92
2018-12-15T06:06:59.351Z,1014.93
2018-12-15T06:07:59.402Z,1014.89
2018-12-15T06:08:59.454Z,1014.92
2018-12-15T06:09:59.509Z,1014.93
2018-12-15T06:10:59.560Z,1014.96
2018-12-15T06:11:59.613Z,1014.96
2018-12-15T06:12:59.667Z,1014.96
2018-12-15T06:13:59.721Z,1014.92
2018-12-15T06:14:59.772Z,1014.96
2018-12-15T06:15:59.826Z,1014.93
2018-12-15T06:17:02.837Z,1014.97
2018-12-15T06:17:59.933Z,1015.02
2018-12-15T06:18:59.988Z,1015.02
2018-12-15T06:20:00.037Z,1015.01
2018-12-15T06:21:00.091Z,1014.99
2018-12-15T06:22:00.145Z,1015.00
2018-12-15T06:23:00.198Z,1015.02
2018-12-15T06:24:00.252Z,1015.02
2018-12-15T06:25:00.305Z,1015.06
2018-12-15T06:26:00.357Z,1015.09
2018-12-15T06:27:00.408Z,1015.07
2018-12-15T06:28:00.464Z,1015.04
2018-12-15T06:29:00.516Z,1015.08
2018-12-15T06:30:00.568Z,1015.06
2018-12-15T06:31:01.217Z,1015.05
2018-12-15T06:32:05.828Z,1015.07
2018-12-15T06:33:01.340Z,1015.00
2018-12-15T06:34:00.782Z,1015.02
2018-12-15T06:35:00.832Z,1015.02
2018-12-15T06:36:00.885Z,1015.00
2018-12-15T06:37:00.939Z,1015.02
2018-12-15T06:38:00.992Z,1014.98
2018-12-15T06:39:01.044Z,1015.00
2018-12-15T06:40:01.099Z,1015.01
2018-12-15T06:41:01.152Z,1015.02
2018-12-15T06:42:01.205Z,1015.04
2018-12-15T06:43:01.257Z,1015.05
2018-12-15T06:44:01.310Z,1015.08
2018-12-15T06:45:01.369Z,1015.05
2018-12-15T06:46:01.417Z,1015.08
2018-12-15T06:47:01.469Z,1015.04
2018-12-15T06:48:01.523Z,1015.05
2018-12-15T06:49:01.576Z,1015.04
2018-12-15T06:50:01.646Z,1015.06
2018-12-15T06:51:01.683Z,1015.09
2018-12-15T06:52:01.736Z,1015.10
2018-12-15T06:53:01.788Z,1015.13
2018-12-15T06:54:01.843Z,1015.10
2018-12-15T06:55:01.897Z,1015.09
2018-12-15T06:56:01.949Z,1015.09
2018-12-15T06:57:02.021Z,1015.11
2018-12-15T06:58:02.055Z,1015.11
2018-12-15T06:59:02.108Z,1015.15
2018-12-15T07:00:02.162Z,1015.15
2018-12-15T07:01:02.233Z,1015.15
2018-12-15T07:02:02.268Z,1015.11
2018-12-15T07:03:02.320Z,1015.12
2018-12-15T07:04:02.373Z,1015.13
2018-12-15T07:05:02.427Z,1015.13
2018-12-15T07:06:02.482Z,1015.13
2018-12-15T07:07:02.534Z,1015.11
2018-12-15T07:08:02.587Z,1015.10
2018-12-15T07:09:02.639Z,1015.10
2018-12-15T07:10:03.012Z,1015.14
2018-12-15T07:11:02.744Z,1015.13
2018-12-15T07:12:02.800Z,1015.10
2018-12-15T07:13:02.855Z,1015.11
2018-12-15T07:14:02.907Z,1015.11
2018-12-15T07:15:02.958Z,1015.08
2018-12-15T07:16:03.012Z,1015.07
2018-12-15T07:17:03.065Z,1015.05
2018-12-15T07:18:03.118Z,1015.05
2018-12-15T07:19:03.172Z,1014.98
2018-12-15T07:20:03.234Z,1015.03
2018-12-15T07:21:03.282Z,1015.01
2018-12-15T07:22:03.332Z,1015.02
2018-12-15T07:23:03.385Z,1015.01
2018-12-15T07:24:03.438Z,1015.03
2018-12-15T07:25:03.491Z,1015.00
2018-12-15T07:26:03.543Z,1014.99
2018-12-15T07:27:03.599Z,1015.06
2018-12-15T07:28:03.650Z,1015.05
2018-12-15T07:29:03.707Z,1015.06
2018-12-15T07:30:03.758Z,1015.01
2018-12-15T07:31:03.810Z,1015.01
2018-12-15T07:32:03.866Z,1015.00
2018-12-15T07:33:03.916Z,1015.00
2018-12-15T07:34:03.971Z,1014.98
2018-12-15T07:35:04.025Z,1014.97
2018-12-15T07:36:04.077Z,1014.99
2018-12-15T07:37:04.129Z,1014.98
2018-12-15T07:38:04.182Z,1014.97
2018-12-15T07:39:04.235Z,1015.01
2018-12-15T07:40:04.289Z,1014.97
2018-12-15T07:41:04.342Z,1015.01
2018-12-15T07:42:04.395Z,1014.98
2018-12-15T07:43:04.466Z,1015.00
2018-12-15T07:44:04.519Z,1014.98
2018-12-15T07:45:04.571Z,1015.00
2018-12-15T07:46:04.619Z,1015.02
2018-12-15T07:47:04.670Z,1014.98
2018-12-15T07:48:04.719Z,1015.01
2018-12-15T07:49:04.773Z,1015.00
2018-12-15T07:50:04.820Z,1015.00
2018-12-15T07:51:04.872Z,1014.97
2018-12-15T07:52:04.925Z,1014.96
2018-12-15T07:53:04.981Z,1014.99
2018-12-15T07:54:05.031Z,1014.95
2018-12-15T07:55:05.084Z,1014.97
2018-12-15T07:56:05.142Z,1015.01
2018-12-15T07:57:05.194Z,1014.98
2018-12-15T07:58:05.244Z,1015.06
2018-12-15T07:59:05.297Z,1015.09
2018-12-15T08:00:05.350Z,1015.05
2018-12-15T08:01:05.404Z,1015.04
2018-12-15T08:02:05.457Z,1015.06
2018-12-15T08:03:05.512Z,1015.05
2018-12-15T08:04:05.563Z,1015.04
2018-12-15T08:05:05.617Z,1015.06
2018-12-15T08:06:05.670Z,1015.03
2018-12-15T08:07:05.722Z,1015.05
2018-12-15T08:08:05.777Z,1015.08
2018-12-15T08:09:05.829Z,1015.12
2018-12-15T08:10:05.883Z,1015.19
2018-12-15T08:11:05.936Z,1015.12
2018-12-15T08:12:05.989Z,1015.17
2018-12-15T08:13:06.041Z,1015.15
2018-12-15T08:14:06.098Z,1015.14
2018-12-15T08:15:06.146Z,1015.16
2018-12-15T08:16:06.201Z,1015.17
2018-12-15T08:17:06.254Z,1015.17
2018-12-15T08:18:06.306Z,1015.23
2018-12-15T08:19:06.361Z,1015.21
2018-12-15T08:20:06.415Z,1015.23
2018-12-15T08:21:06.467Z,1015.22
2018-12-15T08:22:06.518Z,1015.19
2018-12-15T08:23:06.573Z,1015.20
2018-12-15T08:24:06.625Z,1015.21
2018-12-15T08:25:06.677Z,1015.20
2018-12-15T08:26:06.731Z,1015.18
2018-12-15T08:27:06.785Z,1015.16
2018-12-15T08:28:06.837Z,1015.17
2018-12-15T08:29:06.891Z,1015.13
2018-12-15T08:30:06.943Z,1015.18
2018-12-15T08:31:06.996Z,1015.21
2018-12-15T08:32:07.050Z,1015.22
2018-12-15T08:33:07.102Z,1015.20
2018-12-15T08:34:07.155Z,1015.17
2018-12-15T08:35:07.211Z,1015.14
2018-12-15T08:36:07.262Z,1015.15
2018-12-15T08:37:07.315Z,1015.11
2018-12-15T08:38:07.370Z,1015.13
2018-12-15T08:39:07.423Z,1015.15
2018-12-15T08:40:07.476Z,1015.14
2018-12-15T08:41:07.528Z,1015.20
2018-12-15T08:42:07.582Z,1015.24
2018-12-15T08:43:07.639Z,1015.23
2018-12-15T08:44:07.740Z,1015.22
2018-12-15T08:45:07.743Z,1015.24
2018-12-15T08:46:07.862Z,1015.24
2018-12-15T08:47:07.849Z,1015.26
2018-12-15T08:48:07.903Z,1015.30
2018-12-15T08:49:07.956Z,1015.30
2018-12-15T08:50:08.012Z,1015.30
2018-12-15T08:51:08.061Z,1015.29
2018-12-15T08:52:08.116Z,1015.33
2018-12-15T08:53:08.171Z,1015.32
2018-12-15T08:54:08.223Z,1015.34
2018-12-15T08:55:08.274Z,1015.34
2018-12-15T08:56:08.329Z,1015.33
2018-12-15T08:57:08.382Z,1015.33
2018-12-15T08:58:08.437Z,1015.35
2018-12-15T08:59:08.491Z,1015.32
2018-12-15T09:00:08.543Z,1015.28
2018-12-15T09:01:08.596Z,1015.28
2018-12-15T09:02:08.650Z,1015.29
2018-12-15T09:03:08.703Z,1015.28
2018-12-15T09:04:08.758Z,1015.31
2018-12-15T09:05:08.810Z,1015.33
2018-12-15T09:06:08.863Z,1015.35
2018-12-15T09:07:08.916Z,1015.36
2018-12-15T09:08:08.971Z,1015.33
2018-12-15T09:09:09.024Z,1015.37
2018-12-15T09:10:09.078Z,1015.36
2018-12-15T09:11:09.138Z,1015.35
2018-12-15T09:12:09.184Z,1015.36
2018-12-15T09:13:09.238Z,1015.34
2018-12-15T09:14:09.293Z,1015.37
2018-12-15T09:15:09.343Z,1015.33
2018-12-15T09:16:09.400Z,1015.38
2018-12-15T09:17:09.454Z,1015.35
2018-12-15T09:18:09.840Z,1015.34
2018-12-15T09:19:11.392Z,1015.35
2018-12-15T09:20:09.611Z,1015.32
2018-12-15T09:21:09.666Z,1015.33
2018-12-15T09:22:11.449Z,1015.31
2018-12-15T09:23:09.771Z,1015.34
2018-12-15T09:24:09.826Z,1015.31
2018-12-15T09:25:09.880Z,1015.32
2018-12-15T09:26:09.932Z,1015.36
2018-12-15T09:27:09.994Z,1015.39
2018-12-15T09:28:10.039Z,1015.40
2018-12-15T09:29:10.092Z,1015.34
2018-12-15T09:30:10.147Z,1015.34
2018-12-15T09:31:10.199Z,1015.34
2018-12-15T09:32:10.252Z,1015.33
2018-12-15T09:33:10.306Z,1015.32
2018-12-15T09:34:10.360Z,1015.34
2018-12-15T09:35:10.413Z,1015.34
2018-12-15T09:36:10.465Z,1015.36
2018-12-15T09:37:10.519Z,1015.38
2018-12-15T09:38:10.575Z,1015.37
2018-12-15T09:39:10.627Z,1015.34
2018-12-15T09:40:10.681Z,1015.34
2018-12-15T09:41:10.732Z,1015.32
2018-12-15T09:42:10.791Z,1015.37
2018-12-15T09:43:10.840Z,1015.34
2018-12-15T09:44:10.894Z,1015.35
2018-12-15T09:45:10.947Z,1015.34
2018-12-15T09:46:11.001Z,1015.29
2018-12-15T09:47:11.054Z,1015.31
2018-12-15T09:48:11.642Z,1015.34
2018-12-15T09:49:17.561Z,1015.34
2018-12-15T09:50:11.215Z,1015.33
2018-12-15T09:51:11.270Z,1015.34
2018-12-15T09:52:11.320Z,1015.37
2018-12-15T09:53:11.375Z,1015.41
2018-12-15T09:54:11.429Z,1015.40
2018-12-15T09:55:11.484Z,1015.38
2018-12-15T09:56:11.535Z,1015.39
2018-12-15T09:57:11.590Z,1015.36
2018-12-15T09:58:11.643Z,1015.35
2018-12-15T09:59:11.696Z,1015.34
2018-12-15T10:00:11.749Z,1015.37
2018-12-15T10:01:11.804Z,1015.36
2018-12-15T10:02:11.859Z,1015.32
2018-12-15T10:03:11.915Z,1015.36
2018-12-15T10:04:11.964Z,1015.36
2018-12-15T10:05:12.019Z,1015.36
2018-12-15T10:06:12.073Z,1015.32
2018-12-15T10:07:12.126Z,1015.33
2018-12-15T10:08:12.183Z,1015.28
2018-12-15T10:09:12.235Z,1015.29
2018-12-15T10:10:12.287Z,1015.28
2018-12-15T10:11:12.339Z,1015.26
2018-12-15T10:12:12.394Z,1015.18
2018-12-15T10:13:12.448Z,1015.14
2018-12-15T10:14:12.504Z,1015.12
2018-12-15T10:15:12.556Z,1015.13
2018-12-15T10:16:12.610Z,1015.05
2018-12-15T10:17:12.663Z,1015.12
2018-12-15T10:18:12.719Z,1015.11
2018-12-15T10:19:12.771Z,1015.04
2018-12-15T10:20:12.851Z,1015.06
2018-12-15T10:21:12.879Z,1015.05
2018-12-15T10:22:12.933Z,1015.05
2018-12-15T10:23:12.986Z,1015.04
2018-12-15T10:24:13.039Z,1015.08
2018-12-15T10:25:13.094Z,1015.07
2018-12-15T10:26:13.148Z,1015.07
2018-12-15T10:27:13.201Z,1015.06
2018-12-15T10:28:13.255Z,1015.05
2018-12-15T10:29:13.312Z,1015.05
2018-12-15T10:30:13.363Z,1015.04
2018-12-15T10:31:13.417Z,1015.08
2018-12-15T10:32:13.469Z,1015.12
2018-12-15T10:33:13.525Z,1015.06
2018-12-15T10:34:13.584Z,1015.04
2018-12-15T10:35:13.633Z,1015.00
2018-12-15T10:36:13.692Z,1014.97
2018-12-15T10:37:13.740Z,1014.90
2018-12-15T10:38:13.793Z,1014.92
2018-12-15T10:39:13.848Z,1014.85
2018-12-15T10:40:13.901Z,1014.83
2018-12-15T10:41:13.955Z,1014.78
2018-12-15T10:42:14.010Z,1014.78
2018-12-15T10:43:14.062Z,1014.73
2018-12-15T10:44:14.116Z,1014.78
2018-12-15T10:45:14.172Z,1014.77
2018-12-15T10:46:15.296Z,1014.76
2018-12-15T10:47:14.277Z,1014.73
2018-12-15T10:48:14.332Z,1014.73
2018-12-15T10:49:14.386Z,1014.70
2018-12-15T10:50:14.439Z,1014.68
2018-12-15T10:51:14.492Z,1014.66
2018-12-15T10:52:14.546Z,1014.67
2018-12-15T10:53:14.600Z,1014.63
2018-12-15T10:54:14.653Z,1014.65
2018-12-15T10:55:14.708Z,1014.64
2018-12-15T10:56:14.763Z,1014.61
2018-12-15T10:57:14.815Z,1014.56
2018-12-15T10:58:14.869Z,1014.55
2018-12-15T10:59:14.922Z,1014.53
2018-12-15T11:00:14.975Z,1014.55
2018-12-15T11:01:15.029Z,1014.49
2018-12-15T11:02:15.084Z,1014.51
2018-12-15T11:03:15.137Z,1014.46
2018-12-15T11:04:15.190Z,1014.35
2018-12-15T11:05:15.245Z,1014.37
2018-12-15T11:06:15.298Z,1014.32
2018-12-15T11:07:15.352Z,1014.32
2018-12-15T11:08:15.405Z,1014.30
2018-12-15T11:09:15.459Z,1014.28
2018-12-15T11:10:15.513Z,1014.26
2018-12-15T11:11:16.283Z,1014.29
2018-12-15T11:12:16.079Z,1014.29
2018-12-15T11:13:15.673Z,1014.32
2018-12-15T11:14:15.728Z,1014.31
2018-12-15T11:15:15.781Z,1014.26
2018-12-15T11:16:15.833Z,1014.29
2018-12-15T11:17:15.888Z,1014.26
2018-12-15T11:18:15.942Z,1014.22
2018-12-15T11:19:15.995Z,1014.24
2018-12-15T11:20:16.049Z,1014.21
2018-12-15T11:21:16.103Z,1014.19
2018-12-15T11:22:16.157Z,1014.20
2018-12-15T11:23:16.212Z,1014.21
2018-12-15T11:24:16.272Z,1014.21
2018-12-15T11:25:16.319Z,1014.22
2018-12-15T11:26:16.371Z,1014.18
2018-12-15T11:27:16.425Z,1014.15
2018-12-15T11:28:16.481Z,1014.18
2018-12-15T11:29:16.535Z,1014.25
2018-12-15T11:30:16.588Z,1014.29
2018-12-15T11:31:16.640Z,1014.22
2018-12-15T11:32:16.695Z,1014.24
2018-12-15T11:33:16.752Z,1014.29
2018-12-15T11:34:16.805Z,1014.27
2018-12-15T11:35:16.858Z,1014.22
2018-12-15T11:36:16.911Z,1014.18
2018-12-15T11:37:16.965Z,1014.20
2018-12-15T11:38:17.021Z,1014.22
2018-12-15T11:39:17.079Z,1014.14
2018-12-15T11:40:17.130Z,1014.12
2018-12-15T11:41:17.181Z,1014.09
2018-12-15T11:42:17.237Z,1014.09
2018-12-15T11:43:17.290Z,1014.02
2018-12-15T11:44:17.344Z,1014.00
2018-12-15T11:45:17.397Z,1013.95
2018-12-15T11:46:17.453Z,1014.00
2018-12-15T11:47:17.505Z,1013.96
2018-12-15T11:48:17.561Z,1013.98
2018-12-15T11:49:17.614Z,1014.01
2018-12-15T11:50:17.669Z,1013.98
2018-12-15T11:51:17.822Z,1013.95
2018-12-15T11:52:17.776Z,1013.92
2018-12-15T11:53:17.831Z,1013.94
2018-12-15T11:54:17.884Z,1013.97
2018-12-15T11:55:17.937Z,1013.89
2018-12-15T11:56:17.995Z,1013.98
2018-12-15T11:57:18.045Z,1013.97
2018-12-15T11:58:18.102Z,1013.94
2018-12-15T11:59:18.154Z,1013.94
2018-12-15T12:00:18.208Z,1013.93
2018-12-15T12:01:18.261Z,1013.93
2018-12-15T12:02:18.317Z,1013.91
2018-12-15T12:03:18.369Z,1013.90
2018-12-15T12:04:18.422Z,1013.85
2018-12-15T12:05:18.476Z,1013.81
2018-12-15T12:06:18.531Z,1013.75